Time;durP1;ratioP1;P1;durP2;ratioP2;P2;SDS_P1;SDS_P2;PMS_P1;PMS_P2;Temp;Humidity;BMP_temperature;BMP_pressure;BME280_temperature;BME280_humidity;BME280_pressure;Samples;Min_cycle;Max_cycle;Signal;HPM_P1;HPM_P2
2022/12/05 00:01:16;;;;;;;44.97;20.00;;;2.40;99.90;;;;;;5051392;28;20449;-66
2022/12/05 00:03:43;;;;;;;43.67;21.20;;;2.40;99.90;;;;;;5051744;28;20465;-66
2022/12/05 00:06:10;;;;;;;43.00;20.90;;;2.40;99.90;;;;;;5051578;28;20441;-66
2022/12/05 00:08:36;;;;;;;43.10;19.60;;;2.40;99.90;;;;;;5051671;28;20456;-66
2022/12/05 00:11:10;;;;;;;47.20;19.90;;;2.40;99.90;;;;;;5051805;28;20915;-66
2022/12/05 00:13:38;;;;;;;48.50;20.23;;;2.40;99.90;;;;;;5051322;28;20453;-66
2022/12/05 00:16:07;;;;;;;38.23;18.63;;;2.40;99.90;;;;;;5051069;28;20545;-66
2022/12/05 00:18:34;;;;;;;45.10;20.40;;;2.40;99.90;;;;;;5051560;28;20457;-66
2022/12/05 00:21:00;;;;;;;41.20;19.90;;;2.40;99.90;;;;;;5051423;28;20447;-66
2022/12/05 00:23:27;;;;;;;41.10;20.23;;;2.40;99.90;;;;;;5051056;28;20453;-66
2022/12/05 00:25:54;;;;;;;49.60;21.20;;;2.40;99.90;;;;;;5051165;28;20954;-66
2022/12/05 00:28:22;;;;;;;39.87;20.33;;;2.40;99.90;;;;;;5051489;28;20453;-66
2022/12/05 00:30:49;;;;;;;42.70;20.63;;;2.40;99.90;;;;;;5051416;28;20460;-66
2022/12/05 00:33:15;;;;;;;49.50;22.27;;;2.40;99.90;;;;;;5051267;28;20445;-66
2022/12/05 00:35:42;;;;;;;42.80;20.57;;;2.40;99.90;;;;;;5051172;28;20534;-66
2022/12/05 00:38:08;;;;;;;48.50;20.93;;;2.40;99.90;;;;;;5050903;28;20539;-66
2022/12/05 00:40:35;;;;;;;41.90;20.90;;;2.40;99.90;;;;;;5051147;28;20972;-66
2022/12/05 00:43:02;;;;;;;41.47;19.77;;;2.40;99.90;;;;;;5054089;28;20457;-66
2022/12/05 00:45:30;;;;;;;43.83;21.43;;;2.40;99.90;;;;;;5055513;28;20461;-66
2022/12/05 00:47:57;;;;;;;43.70;19.97;;;2.40;99.90;;;;;;5055243;28;20471;-66
2022/12/05 00:50:24;;;;;;;46.23;20.63;;;2.40;99.90;;;;;;5055234;28;20450;-67
2022/12/05 00:52:51;;;;;;;38.00;18.83;;;2.30;99.90;;;;;;5054829;28;20463;-66
2022/12/05 00:55:18;;;;;;;41.80;19.70;;;2.30;99.90;;;;;;5055058;28;20485;-66
2022/12/05 00:57:45;;;;;;;50.27;21.03;;;2.30;99.90;;;;;;5054953;28;21093;-66
2022/12/05 01:00:12;;;;;;;42.57;20.37;;;2.30;99.90;;;;;;5054952;28;20961;-66
2022/12/05 01:02:40;;;;;;;43.00;21.27;;;2.30;99.90;;;;;;5054913;28;20448;-66
2022/12/05 01:05:08;;;;;;;49.03;21.63;;;2.30;99.90;;;;;;5054675;28;20515;-67
2022/12/05 01:07:34;;;;;;;43.50;21.37;;;2.20;99.90;;;;;;5054699;28;20942;-66
2022/12/05 01:10:01;;;;;;;46.43;20.83;;;2.20;99.90;;;;;;5054939;28;20840;-66
2022/12/05 01:12:28;;;;;;;46.27;21.50;;;2.20;99.90;;;;;;5054829;28;20524;-67
2022/12/05 01:14:54;;;;;;;46.90;22.03;;;2.20;99.90;;;;;;5054779;28;20470;-66
2022/12/05 01:17:21;;;;;;;41.97;21.67;;;2.20;99.90;;;;;;5054035;28;20826;-66
2022/12/05 01:19:49;;;;;;;41.20;20.80;;;2.10;99.90;;;;;;5054563;28;20888;-66
2022/12/05 01:22:16;;;;;;;49.73;22.13;;;2.10;99.90;;;;;;5054536;28;20441;-66
2022/12/05 01:24:43;;;;;;;48.10;21.77;;;2.00;99.90;;;;;;5054546;28;20465;-67
2022/12/05 01:27:10;;;;;;;47.20;20.57;;;2.00;99.90;;;;;;5054399;28;20961;-67
2022/12/05 01:29:36;;;;;;;43.33;20.47;;;2.00;99.90;;;;;;5054405;28;20445;-66
2022/12/05 01:32:04;;;;;;;46.10;21.40;;;1.90;99.90;;;;;;5054148;28;20461;-66
2022/12/05 01:34:30;;;;;;;47.47;20.33;;;1.90;99.90;;;;;;5054115;28;20857;-66
2022/12/05 01:36:59;;;;;;;46.70;21.83;;;1.80;99.90;;;;;;5054351;28;20489;-66
2022/12/05 01:39:25;;;;;;;42.47;20.63;;;1.80;99.90;;;;;;5054297;28;20449;-66
2022/12/05 01:41:52;;;;;;;46.30;20.70;;;1.70;99.90;;;;;;5054204;28;20445;-66
2022/12/05 01:44:52;;;;;;;44.30;20.60;;;1.70;99.90;;;;;;5053797;28;20567;-66
2022/12/05 01:47:19;;;;;;;53.30;21.03;;;1.70;99.90;;;;;;5053916;28;20447;-66
2022/12/05 01:49:46;;;;;;;42.67;19.93;;;1.70;99.90;;;;;;5054156;28;20440;-67
2022/12/05 01:52:18;;;;;;;38.67;18.53;;;1.70;99.90;;;;;;5053935;28;20445;-66
2022/12/05 01:54:47;;;;;;;41.93;19.43;;;1.70;99.90;;;;;;5052336;28;20973;-66
2022/12/05 01:57:15;;;;;;;36.93;19.57;;;1.60;99.90;;;;;;5054133;28;20881;-66
2022/12/05 01:59:47;;;;;;;43.17;19.80;;;1.60;99.90;;;;;;5053814;28;20441;-66
2022/12/05 02:02:13;;;;;;;36.63;18.37;;;1.60;99.90;;;;;;5053912;28;20508;-66
2022/12/05 02:04:46;;;;;;;43.00;19.50;;;1.60;99.90;;;;;;5053618;28;20843;-67
2022/12/05 02:07:14;;;;;;;41.17;19.17;;;1.50;99.90;;;;;;5053644;28;20460;-66
2022/12/05 02:09:41;;;;;;;36.40;18.87;;;1.60;99.90;;;;;;5053716;28;20795;-67
2022/12/05 02:12:08;;;;;;;39.10;18.47;;;1.50;99.90;;;;;;5053875;28;20476;-67
2022/12/05 02:14:44;;;;;;;38.87;17.87;;;1.60;99.90;;;;;;5053389;28;21004;-67
2022/12/05 02:17:17;;;;;;;41.00;18.30;;;1.60;99.90;;;;;;5053563;28;20477;-67
2022/12/05 02:20:12;;;;;;;29.80;16.20;;;1.60;99.90;;;;;;5053483;28;20456;-66
2022/12/05 02:23:22;;;;;;;39.27;19.23;;;1.70;99.90;;;;;;5053314;28;20445;-67
2022/12/05 02:26:26;;;;;;;31.60;16.53;;;1.70;99.90;;;;;;5053318;28;20849;-66
2022/12/05 02:29:11;;;;;;;33.73;17.73;;;1.70;99.90;;;;;;5053469;28;20442;-67
2022/12/05 02:31:45;;;;;;;38.80;17.70;;;1.70;99.90;;;;;;5053304;28;20441;-66
2022/12/05 02:34:19;;;;;;;39.77;18.40;;;1.70;99.90;;;;;;5053299;28;20829;-66
2022/12/05 02:36:55;;;;;;;39.13;18.40;;;1.70;99.90;;;;;;5053134;28;20929;-66
2022/12/05 02:39:29;;;;;;;39.83;18.83;;;1.70;99.90;;;;;;5053273;28;20449;-66
2022/12/05 02:42:02;;;;;;;32.90;16.37;;;1.70;99.90;;;;;;5053174;28;20472;-66
2022/12/05 02:44:34;;;;;;;34.03;19.00;;;1.80;99.90;;;;;;5052708;28;20467;-66
2022/12/05 02:47:05;;;;;;;36.90;17.87;;;1.80;99.90;;;;;;5053268;28;20812;-66
2022/12/05 02:49:35;;;;;;;33.67;17.30;;;1.80;99.90;;;;;;5053127;28;20514;-66
2022/12/05 02:52:05;;;;;;;34.43;18.60;;;1.80;99.90;;;;;;5052965;28;20456;-66
2022/12/05 02:54:37;;;;;;;33.20;16.80;;;1.80;99.90;;;;;;5052556;28;20473;-66
2022/12/05 02:57:05;;;;;;;32.00;16.97;;;1.80;99.90;;;;;;5052641;28;20943;-66
2022/12/05 02:59:32;;;;;;;35.17;17.30;;;1.80;99.90;;;;;;5053091;28;20820;-66
2022/12/05 03:01:58;;;;;;;33.07;17.50;;;1.70;99.90;;;;;;5052887;28;20453;-66
2022/12/05 03:04:29;;;;;;;38.50;17.50;;;1.70;99.90;;;;;;5052217;28;20473;-66
2022/12/05 03:06:59;;;;;;;29.37;16.20;;;1.70;99.90;;;;;;5053188;28;20459;-66
2022/12/05 03:09:30;;;;;;;35.07;18.40;;;1.70;99.90;;;;;;5052378;28;20797;-66
2022/12/05 03:12:02;;;;;;;33.53;17.80;;;1.70;99.90;;;;;;5052686;28;20453;-66
2022/12/05 03:14:37;;;;;;;36.80;18.10;;;1.70;99.90;;;;;;5052392;28;20485;-66
2022/12/05 03:17:09;;;;;;;40.53;18.20;;;1.70;99.90;;;;;;5051971;28;21062;-66
2022/12/05 03:19:49;;;;;;;40.23;18.30;;;1.70;99.90;;;;;;5052203;28;20437;-66
2022/12/05 03:22:22;;;;;;;38.90;19.10;;;1.70;99.90;;;;;;5052441;28;20468;-66
2022/12/05 03:24:49;;;;;;;38.33;18.87;;;1.70;99.90;;;;;;5052174;28;20481;-66
2022/12/05 03:27:22;;;;;;;32.37;17.27;;;1.70;99.90;;;;;;5052338;28;20451;-66
2022/12/05 03:29:55;;;;;;;43.37;19.20;;;1.70;99.90;;;;;;5051979;28;20452;-66
2022/12/05 03:32:26;;;;;;;35.03;17.23;;;1.70;99.90;;;;;;5052385;28;20452;-67
2022/12/05 03:35:04;;;;;;;35.80;17.60;;;1.70;99.90;;;;;;5051885;28;20524;-66
2022/12/05 03:37:41;;;;;;;41.83;18.20;;;1.80;99.90;;;;;;5052202;28;20477;-66
2022/12/05 03:40:15;;;;;;;37.03;17.30;;;1.80;99.90;;;;;;5051822;28;20441;-66
2022/12/05 03:42:51;;;;;;;37.90;18.23;;;1.70;99.90;;;;;;5052216;28;20454;-66
2022/12/05 03:45:27;;;;;;;34.57;16.97;;;1.70;99.90;;;;;;5051657;28;20599;-66
2022/12/05 03:48:03;;;;;;;38.47;17.70;;;1.70;99.90;;;;;;5052122;28;20654;-66
2022/12/05 03:50:31;;;;;;;40.33;18.83;;;1.70;99.90;;;;;;5051652;28;20790;-67
2022/12/05 03:53:02;;;;;;;43.37;19.40;;;1.80;99.90;;;;;;5051764;28;20507;-66
2022/12/05 03:55:33;;;;;;;35.43;17.23;;;1.80;99.90;;;;;;5051536;28;20485;-66
2022/12/05 03:58:03;;;;;;;33.77;17.70;;;1.80;99.90;;;;;;5051720;28;21002;-66
2022/12/05 04:00:35;;;;;;;37.30;18.30;;;1.80;99.90;;;;;;5051754;28;20909;-66
2022/12/05 04:03:06;;;;;;;32.27;17.73;;;1.80;99.90;;;;;;5051595;28;20506;-66
2022/12/05 04:05:42;;;;;;;36.50;17.50;;;1.80;99.90;;;;;;5051584;28;20886;-66
2022/12/05 04:08:14;;;;;;;34.57;18.27;;;1.80;99.90;;;;;;5051750;28;20648;-66
2022/12/05 04:10:48;;;;;;;34.50;17.43;;;1.90;99.90;;;;;;5051550;28;20892;-66
2022/12/05 04:13:18;;;;;;;32.17;17.47;;;1.90;99.90;;;;;;5051567;28;20449;-66
2022/12/05 04:18:38;;;;;;;33.20;16.90;;;1.90;99.90;;;;;;5051229;28;21014;-66
2022/12/05 04:26:33;;;;;;;36.23;18.53;;;2.00;99.90;;;;;;5050958;28;20527;-66
2022/12/05 04:29:08;;;;;;;35.33;15.93;;;2.00;99.90;;;;;;5051480;28;20499;-66
2022/12/05 04:31:41;;;;;;;34.00;17.53;;;2.00;99.90;;;;;;5051317;28;20445;-66
2022/12/05 04:34:12;;;;;;;35.03;16.97;;;2.00;99.90;;;;;;5051297;28;20469;-66
2022/12/05 04:36:43;;;;;;;35.40;17.20;;;2.00;99.90;;;;;;5051521;28;20447;-66
2022/12/05 04:39:15;;;;;;;33.20;16.93;;;2.10;99.90;;;;;;5051376;28;20490;-66
2022/12/05 04:41:47;;;;;;;43.60;18.93;;;2.10;99.90;;;;;;5051202;28;20943;-66
2022/12/05 04:44:19;;;;;;;39.30;17.77;;;2.10;99.90;;;;;;5050999;28;20491;-66
2022/12/05 04:46:50;;;;;;;43.00;19.20;;;2.10;99.90;;;;;;5051219;28;20445;-67
2022/12/05 04:49:21;;;;;;;39.23;18.13;;;2.00;99.90;;;;;;5051129;28;20932;-66
2022/12/05 04:51:51;;;;;;;40.37;19.43;;;2.00;99.90;;;;;;5051130;28;20441;-66
2022/12/05 04:54:22;;;;;;;36.07;18.90;;;2.00;99.90;;;;;;5050946;28;20476;-66
2022/12/05 04:56:52;;;;;;;38.57;19.00;;;2.00;99.90;;;;;;5050970;28;20469;-66
2022/12/05 04:59:19;;;;;;;34.50;17.80;;;2.00;99.90;;;;;;5051321;28;20512;-66
2022/12/05 05:01:49;;;;;;;33.83;17.10;;;2.00;99.90;;;;;;5051182;28;20457;-66
2022/12/05 05:04:21;;;;;;;37.40;18.63;;;2.00;99.90;;;;;;5051011;28;20969;-66
2022/12/05 05:06:48;;;;;;;37.50;19.73;;;2.00;99.90;;;;;;5051170;28;20865;-66
2022/12/05 05:09:16;;;;;;;33.77;17.10;;;2.10;99.90;;;;;;5050924;28;20860;-66
2022/12/05 05:11:42;;;;;;;34.97;17.20;;;2.10;99.90;;;;;;5050786;28;20449;-66
2022/12/05 05:14:09;;;;;;;35.40;18.37;;;2.10;99.90;;;;;;5051112;28;20873;-66
2022/12/05 05:16:39;;;;;;;35.90;18.13;;;2.10;99.90;;;;;;5050383;28;20452;-66
2022/12/05 05:19:08;;;;;;;37.27;17.43;;;2.10;99.90;;;;;;5050912;28;20531;-67
2022/12/05 05:21:37;;;;;;;33.63;17.53;;;2.10;99.90;;;;;;5050646;28;20762;-66
2022/12/05 05:24:06;;;;;;;33.47;16.70;;;2.10;99.90;;;;;;5050980;28;20476;-66
2022/12/05 05:26:37;;;;;;;35.07;17.83;;;2.10;99.90;;;;;;5050832;28;20495;-66
2022/12/05 05:29:04;;;;;;;31.30;15.90;;;2.10;99.90;;;;;;5053515;28;20441;-66
2022/12/05 05:31:31;;;;;;;36.43;17.13;;;2.10;99.90;;;;;;5054326;28;20445;-66
2022/12/05 05:33:58;;;;;;;30.57;16.10;;;2.10;99.90;;;;;;5054261;28;20469;-66
2022/12/05 05:36:27;;;;;;;30.23;16.00;;;2.20;99.90;;;;;;5054447;28;20479;-66
2022/12/05 05:38:56;;;;;;;28.87;16.27;;;2.20;99.90;;;;;;5054310;28;20485;-66
2022/12/05 05:41:25;;;;;;;40.50;18.70;;;2.20;99.90;;;;;;5054330;28;20448;-66
2022/12/05 05:43:53;;;;;;;30.03;16.30;;;2.20;99.90;;;;;;5054192;28;20472;-66
2022/12/05 05:46:23;;;;;;;36.30;16.17;;;2.20;99.90;;;;;;5053975;28;20461;-66
2022/12/05 05:48:50;;;;;;;30.10;15.03;;;2.10;99.90;;;;;;5054119;28;20807;-66
2022/12/05 05:51:19;;;;;;;32.00;16.43;;;2.10;99.90;;;;;;5054144;28;20460;-66
2022/12/05 05:53:47;;;;;;;31.47;17.07;;;2.10;99.90;;;;;;5054150;28;20468;-66
2022/12/05 05:56:15;;;;;;;31.23;16.43;;;2.10;99.90;;;;;;5053789;28;20466;-66
2022/12/05 05:58:43;;;;;;;32.83;17.23;;;2.10;99.90;;;;;;5054351;28;20480;-66
2022/12/05 06:01:14;;;;;;;30.20;16.40;;;2.10;99.90;;;;;;5053626;28;20453;-66
2022/12/05 06:03:41;;;;;;;37.10;17.73;;;2.10;99.90;;;;;;5054061;28;20449;-66
2022/12/05 06:06:09;;;;;;;35.53;17.90;;;2.10;99.90;;;;;;5053915;28;20453;-66
2022/12/05 06:08:38;;;;;;;28.97;14.80;;;2.00;99.90;;;;;;5053900;28;20473;-66
2022/12/05 06:11:06;;;;;;;31.13;16.67;;;2.00;99.90;;;;;;5053693;28;20452;-67
2022/12/05 06:13:33;;;;;;;30.93;16.53;;;2.00;99.90;;;;;;5053512;28;20523;-66
2022/12/05 06:15:59;;;;;;;38.23;17.63;;;2.00;99.90;;;;;;5053252;28;20456;-66
2022/12/05 06:18:28;;;;;;;39.73;18.20;;;2.00;99.90;;;;;;5053624;28;20483;-66
2022/12/05 06:20:55;;;;;;;42.50;17.57;;;1.90;99.90;;;;;;5053522;28;20502;-66
2022/12/05 06:23:26;;;;;;;32.73;17.97;;;1.90;99.90;;;;;;5053472;28;20449;-66
2022/12/05 06:25:54;;;;;;;38.43;18.10;;;1.90;99.90;;;;;;5053493;28;20452;-66
2022/12/05 06:28:23;;;;;;;37.07;18.63;;;2.00;99.90;;;;;;5053689;28;20474;-67
2022/12/05 06:30:50;;;;;;;34.50;18.83;;;2.00;99.90;;;;;;5053343;28;20445;-66
2022/12/05 06:33:17;;;;;;;31.77;17.17;;;2.00;99.90;;;;;;5053401;28;20449;-66
2022/12/05 06:35:45;;;;;;;34.10;17.87;;;2.00;99.90;;;;;;5053069;28;20477;-66
2022/12/05 06:38:12;;;;;;;43.40;18.57;;;1.90;99.90;;;;;;5053059;28;20514;-66
2022/12/05 06:40:40;;;;;;;38.40;18.20;;;1.90;99.90;;;;;;5052586;28;20477;-67
2022/12/05 06:43:07;;;;;;;32.93;18.80;;;1.90;99.90;;;;;;5053135;28;20863;-66
2022/12/05 06:45:34;;;;;;;41.77;19.83;;;1.90;99.90;;;;;;5052877;28;20466;-66
2022/12/05 06:48:00;;;;;;;37.93;18.90;;;1.90;99.90;;;;;;5053087;28;20452;-66
2022/12/05 06:50:27;;;;;;;39.20;20.40;;;1.90;99.90;;;;;;5052961;28;20447;-66
2022/12/05 06:52:55;;;;;;;34.37;19.33;;;2.00;99.90;;;;;;5052723;28;20495;-66
2022/12/05 06:55:22;;;;;;;37.60;19.53;;;2.00;99.90;;;;;;5052675;28;20480;-66
2022/12/05 06:57:48;;;;;;;45.90;21.50;;;2.00;99.90;;;;;;5052749;28;20533;-66
2022/12/05 07:03:00;;;;;;;39.87;20.67;;;2.10;99.90;;;;;;5052648;28;20430;-67
2022/12/05 07:05:26;;;;;;;255.73;77.60;;;2.20;99.90;;;;;;5052391;28;20477;-67
2022/12/05 07:07:54;;;;;;;149.03;47.30;;;2.20;99.90;;;;;;5052900;28;20447;-67
2022/12/05 07:10:21;;;;;;;55.20;23.33;;;2.20;99.90;;;;;;5052857;28;20499;-67
2022/12/05 07:12:48;;;;;;;38.90;19.07;;;2.20;99.90;;;;;;5052429;28;20456;-67
2022/12/05 07:15:14;;;;;;;44.33;20.17;;;2.20;99.90;;;;;;5051842;28;21040;-66
2022/12/05 07:17:41;;;;;;;34.83;19.00;;;2.30;99.90;;;;;;5052403;28;20453;-67
2022/12/05 07:20:11;;;;;;;40.30;19.57;;;2.30;99.90;;;;;;5052461;28;20484;-67
2022/12/05 07:22:38;;;;;;;43.40;21.07;;;2.30;99.90;;;;;;5052184;28;21011;-67
2022/12/05 07:25:07;;;;;;;47.97;21.53;;;2.30;99.90;;;;;;5052058;28;20471;-67
2022/12/05 07:27:34;;;;;;;35.40;18.47;;;2.30;99.90;;;;;;5052087;28;20532;-66
2022/12/05 07:30:00;;;;;;;38.97;19.93;;;2.20;99.90;;;;;;5052015;28;20471;-67
2022/12/05 07:32:30;;;;;;;40.87;19.33;;;2.20;99.90;;;;;;5052321;28;20445;-67
2022/12/05 07:34:57;;;;;;;43.87;20.50;;;2.10;99.90;;;;;;5052090;28;20468;-67
2022/12/05 07:37:24;;;;;;;45.30;19.17;;;2.10;99.90;;;;;;5052159;28;20451;-66
2022/12/05 07:39:51;;;;;;;43.37;21.03;;;2.10;99.90;;;;;;5052029;28;20488;-66
2022/12/05 07:42:19;;;;;;;43.60;20.57;;;2.20;99.90;;;;;;5051763;28;20446;-67
2022/12/05 07:44:46;;;;;;;39.60;20.07;;;2.20;99.90;;;;;;5051848;28;20469;-67
2022/12/05 07:47:13;;;;;;;37.43;19.10;;;2.30;99.90;;;;;;5051974;28;20756;-66
2022/12/05 07:49:39;;;;;;;44.27;19.57;;;2.30;99.90;;;;;;5052082;28;20471;-66
2022/12/05 07:52:06;;;;;;;43.20;19.53;;;2.30;99.90;;;;;;5050909;28;20453;-67
2022/12/05 07:54:33;;;;;;;44.97;19.93;;;2.20;99.90;;;;;;5051691;28;20909;-66
2022/12/05 07:57:00;;;;;;;44.80;20.20;;;2.20;99.90;;;;;;5051596;28;20499;-67
2022/12/05 07:59:28;;;;;;;48.37;20.30;;;2.20;99.90;;;;;;5051895;28;20534;-67
2022/12/05 08:01:54;;;;;;;46.33;20.33;;;2.20;99.90;;;;;;5051602;28;20453;-67
2022/12/05 08:04:21;;;;;;;45.17;20.00;;;2.20;99.90;;;;;;5051651;28;20472;-67
2022/12/05 08:06:48;;;;;;;59.33;21.60;;;2.20;99.90;;;;;;5051770;28;20500;-67
2022/12/05 08:09:14;;;;;;;44.80;21.07;;;2.10;99.90;;;;;;5051684;28;20448;-67
2022/12/05 08:11:41;;;;;;;42.27;20.00;;;2.20;99.90;;;;;;5051310;28;20514;-67
2022/12/05 08:14:08;;;;;;;48.40;22.27;;;2.20;99.90;;;;;;5051715;28;20498;-67
2022/12/05 08:16:36;;;;;;;44.43;20.80;;;2.20;99.90;;;;;;5051153;28;20449;-67
2022/12/05 08:19:05;;;;;;;47.77;21.60;;;2.20;99.90;;;;;;5051374;28;20988;-67
2022/12/05 08:21:32;;;;;;;46.23;20.97;;;2.20;99.90;;;;;;5051258;28;20499;-67
2022/12/05 08:23:59;;;;;;;56.20;22.37;;;2.30;99.90;;;;;;5051636;28;20481;-67
2022/12/05 08:26:28;;;;;;;59.90;21.70;;;2.30;99.90;;;;;;5051609;28;20445;-67
2022/12/05 08:28:58;;;;;;;49.23;21.30;;;2.30;99.90;;;;;;5051432;28;20472;-67
2022/12/05 08:31:26;;;;;;;58.53;20.73;;;2.30;99.90;;;;;;5051675;28;20454;-67
2022/12/05 08:33:56;;;;;;;65.30;22.20;;;2.30;99.90;;;;;;5051210;28;20472;-67
2022/12/05 08:36:22;;;;;;;55.70;21.90;;;2.30;99.90;;;;;;5051705;28;20472;-67
2022/12/05 08:38:49;;;;;;;63.97;23.30;;;2.30;99.90;;;;;;5051435;28;20936;-67
2022/12/05 08:41:17;;;;;;;55.70;22.30;;;2.30;99.90;;;;;;5051428;28;20449;-67
2022/12/05 08:43:44;;;;;;;54.30;23.37;;;2.30;99.90;;;;;;5051224;28;20473;-67
2022/12/05 08:46:12;;;;;;;59.13;22.90;;;2.40;99.90;;;;;;5051208;28;20871;-67
2022/12/05 08:48:38;;;;;;;65.63;24.73;;;2.40;99.90;;;;;;5050913;28;20449;-68
2022/12/05 08:51:08;;;;;;;61.47;26.20;;;2.40;99.90;;;;;;5051299;28;20454;-67
2022/12/05 08:53:36;;;;;;;69.77;26.90;;;2.40;99.90;;;;;;5051455;28;20469;-67
2022/12/05 08:56:03;;;;;;;68.33;24.80;;;2.50;99.90;;;;;;5051098;28;20480;-67
2022/12/05 08:58:30;;;;;;;63.40;22.07;;;2.50;99.90;;;;;;5051059;28;20469;-67
2022/12/05 09:01:04;;;;;;;56.23;23.43;;;2.50;99.90;;;;;;5050940;28;20449;-67
2022/12/05 09:03:31;;;;;;;68.37;25.67;;;2.60;99.90;;;;;;5052988;28;20499;-67
2022/12/05 09:06:07;;;;;;;62.83;24.17;;;2.60;99.90;;;;;;5055061;28;20447;-67
2022/12/05 09:08:34;;;;;;;59.17;23.67;;;2.60;99.90;;;;;;5055087;28;20449;-67
2022/12/05 09:11:06;;;;;;;69.00;28.07;;;2.70;99.90;;;;;;5055007;28;20471;-67
2022/12/05 09:13:32;;;;;;;61.07;24.70;;;2.70;99.90;;;;;;5054611;28;20488;-67
2022/12/05 09:15:59;;;;;;;49.47;21.60;;;2.70;99.90;;;;;;5054618;28;20832;-67
2022/12/05 09:18:26;;;;;;;69.77;22.20;;;2.80;99.90;;;;;;5054864;28;20449;-67
2022/12/05 09:20:52;;;;;;;51.70;20.80;;;2.90;99.90;;;;;;5054783;28;20493;-67
2022/12/05 09:23:20;;;;;;;52.70;20.63;;;2.90;99.90;;;;;;5054670;28;20442;-67
2022/12/05 09:25:54;;;;;;;59.10;21.30;;;3.00;99.90;;;;;;5054382;28;20565;-67
2022/12/05 09:28:21;;;;;;;45.03;20.27;;;3.00;99.90;;;;;;5054823;28;20453;-67
2022/12/05 09:30:56;;;;;;;58.17;23.47;;;3.00;99.90;;;;;;5054664;28;20441;-67
2022/12/05 09:33:22;;;;;;;54.50;21.90;;;3.10;99.90;;;;;;5054500;28;20456;-67
2022/12/05 09:35:49;;;;;;;56.13;21.47;;;3.10;99.90;;;;;;5054423;28;20528;-67
2022/12/05 09:38:16;;;;;;;43.80;19.30;;;3.10;99.90;;;;;;5054235;28;20454;-67
2022/12/05 09:40:44;;;;;;;47.10;20.60;;;3.20;99.90;;;;;;5054462;28;20494;-67
2022/12/05 09:43:19;;;;;;;44.50;21.20;;;3.20;99.90;;;;;;5054439;28;20867;-67
2022/12/05 09:45:53;;;;;;;53.00;20.57;;;3.20;99.90;;;;;;5054204;28;20538;-67
2022/12/05 09:48:23;;;;;;;48.73;21.17;;;3.20;99.90;;;;;;5054114;28;21000;-67
2022/12/05 09:50:54;;;;;;;49.57;20.73;;;3.20;99.90;;;;;;5054472;28;20965;-67
2022/12/05 09:53:27;;;;;;;56.43;21.50;;;3.20;99.90;;;;;;5054247;28;20450;-67
2022/12/05 09:56:00;;;;;;;43.20;19.10;;;3.20;99.90;;;;;;5053866;28;20496;-67
2022/12/05 09:58:38;;;;;;;43.30;17.97;;;3.20;99.90;;;;;;5054127;28;20884;-67
2022/12/05 10:01:20;;;;;;;48.57;18.87;;;3.20;99.90;;;;;;5053793;28;20897;-67
2022/12/05 10:03:57;;;;;;;44.73;20.10;;;3.20;99.90;;;;;;5054150;28;20818;-67
2022/12/05 10:06:28;;;;;;;42.60;19.53;;;3.20;99.90;;;;;;5053990;28;20453;-67
2022/12/05 10:09:08;;;;;;;48.90;20.70;;;3.20;99.90;;;;;;5054016;28;20541;-67
2022/12/05 10:11:41;;;;;;;50.70;21.90;;;3.20;99.90;;;;;;5053573;28;20449;-67
2022/12/05 10:14:15;;;;;;;45.27;19.40;;;3.20;99.90;;;;;;5052949;28;20985;-67
2022/12/05 10:16:48;;;;;;;45.77;20.00;;;3.20;99.90;;;;;;5053299;28;20940;-67
2022/12/05 10:19:18;;;;;;;52.13;21.77;;;3.20;99.90;;;;;;5053536;28;20492;-67
2022/12/05 10:21:51;;;;;;;40.30;20.30;;;3.20;99.90;;;;;;5053865;28;20457;-67
2022/12/05 10:24:24;;;;;;;37.30;19.13;;;3.30;99.90;;;;;;5053577;28;20469;-67
2022/12/05 10:26:58;;;;;;;40.67;18.73;;;3.30;99.90;;;;;;5053883;28;20858;-67
2022/12/05 10:29:29;;;;;;;33.73;16.60;;;3.30;99.90;;;;;;5053639;28;20440;-67
2022/12/05 10:32:05;;;;;;;42.30;19.70;;;3.40;99.90;;;;;;5053299;28;20452;-67
2022/12/05 10:34:34;;;;;;;34.17;16.80;;;3.50;99.90;;;;;;5053316;28;20461;-67
2022/12/05 10:37:10;;;;;;;29.37;15.30;;;3.50;99.90;;;;;;5053493;28;20445;-67
2022/12/05 10:39:37;;;;;;;32.17;16.07;;;3.50;99.90;;;;;;5053224;28;20507;-67
2022/12/05 10:42:06;;;;;;;29.70;16.80;;;3.50;99.90;;;;;;5053308;28;20449;-67
2022/12/05 10:44:33;;;;;;;32.37;14.60;;;3.50;99.90;;;;;;5052821;28;20833;-67
2022/12/05 10:47:01;;;;;;;33.23;17.33;;;3.50;99.90;;;;;;5053476;28;20458;-67
2022/12/05 10:49:29;;;;;;;28.43;15.53;;;3.50;99.90;;;;;;5052963;28;20482;-67
2022/12/05 10:51:56;;;;;;;28.00;15.43;;;3.50;99.90;;;;;;5052991;28;20934;-67
2022/12/05 10:54:29;;;;;;;32.00;16.63;;;3.40;99.90;;;;;;5052878;28;20503;-67
2022/12/05 10:56:56;;;;;;;24.20;13.87;;;3.40;99.90;;;;;;5052934;28;20571;-67
2022/12/05 10:59:26;;;;;;;27.67;14.60;;;3.50;99.90;;;;;;5053039;28;20483;-67
2022/12/05 11:01:54;;;;;;;29.30;15.93;;;3.50;99.90;;;;;;5052961;28;20448;-67
2022/12/05 11:04:25;;;;;;;30.50;14.70;;;3.50;99.90;;;;;;5052574;28;21050;-67
2022/12/05 11:06:55;;;;;;;24.87;15.17;;;3.50;99.90;;;;;;5052940;28;20454;-67
2022/12/05 11:09:24;;;;;;;34.07;15.60;;;3.60;99.90;;;;;;5052438;28;20450;-67
2022/12/05 11:12:16;;;;;;;26.83;14.37;;;3.60;99.90;;;;;;5052934;28;20526;-67
2022/12/05 11:14:57;;;;;;;25.33;13.40;;;3.60;99.90;;;;;;5052372;28;20977;-67
2022/12/05 11:17:26;;;;;;;24.60;14.27;;;3.60;99.90;;;;;;5052154;28;20456;-67
2022/12/05 11:19:53;;;;;;;22.40;13.00;;;3.70;99.90;;;;;;5052550;28;20487;-67
2022/12/05 11:22:22;;;;;;;49.37;22.37;;;3.70;99.90;;;;;;5052482;28;20459;-67
2022/12/05 11:24:48;;;;;;;23.27;13.20;;;3.70;99.90;;;;;;5052185;28;20472;-67
2022/12/05 11:27:28;;;;;;;24.07;13.03;;;3.70;99.90;;;;;;5052303;28;20537;-67
2022/12/05 11:29:59;;;;;;;29.10;13.47;;;3.70;99.90;;;;;;5052107;28;20452;-67
2022/12/05 11:32:28;;;;;;;22.13;12.97;;;3.80;99.90;;;;;;5052529;28;20455;-67
2022/12/05 11:35:04;;;;;;;22.63;12.07;;;3.80;99.90;;;;;;5051983;28;20477;-66
2022/12/05 11:37:35;;;;;;;23.50;12.97;;;3.90;99.90;;;;;;5052197;28;20450;-66
2022/12/05 11:40:02;;;;;;;20.20;12.40;;;3.90;99.90;;;;;;5051821;28;21073;-65
2022/12/05 11:42:40;;;;;;;24.50;13.83;;;3.90;99.90;;;;;;5052511;28;20446;-65
2022/12/05 11:45:30;;;;;;;27.20;13.90;;;3.90;99.90;;;;;;5052008;28;20467;-65
2022/12/05 11:48:34;;;;;;;23.57;13.97;;;3.90;99.90;;;;;;5052255;28;20457;-66
2022/12/05 11:51:17;;;;;;;29.20;13.50;;;3.90;99.90;;;;;;5052161;28;20484;-65
2022/12/05 11:54:16;;;;;;;14.67;8.73;;;3.90;99.90;;;;;;5052000;28;20476;-65
2022/12/05 11:56:48;;;;;;;12.47;8.83;;;4.00;99.90;;;;;;5048039;28;20603;-65
2022/12/05 11:59:34;;;;;;;15.63;8.67;;;4.00;99.90;;;;;;5051984;28;20493;-65
2022/12/05 12:02:10;;;;;;;12.80;8.43;;;4.10;99.90;;;;;;5051965;28;20507;-65
2022/12/05 12:04:49;;;;;;;11.43;7.53;;;4.20;99.90;;;;;;5051528;28;20472;-66
2022/12/05 12:07:33;;;;;;;10.17;7.60;;;4.20;99.90;;;;;;5051604;28;20495;-65
2022/12/05 12:10:12;;;;;;;9.30;7.10;;;4.30;99.90;;;;;;5051570;28;20814;-65
2022/12/05 12:12:49;;;;;;;8.80;6.23;;;4.20;99.90;;;;;;5051784;28;20455;-66
2022/12/05 12:15:46;;;;;;;6.57;5.67;;;4.30;99.90;;;;;;5050927;28;20947;-67
2022/12/05 12:18:24;;;;;;;7.93;5.57;;;4.30;99.90;;;;;;5051723;28;20452;-67
2022/12/05 12:21:04;;;;;;;5.20;4.70;;;4.30;99.90;;;;;;5051520;28;20491;-67
2022/12/05 12:23:43;;;;;;;5.13;4.63;;;4.30;99.90;;;;;;5051327;28;20454;-67
2022/12/05 12:26:13;;;;;;;5.80;5.00;;;4.30;99.90;;;;;;5051640;28;20809;-67
2022/12/05 12:28:46;;;;;;;5.60;4.67;;;4.30;99.90;;;;;;5051695;28;20535;-67
2022/12/05 12:31:29;;;;;;;5.47;4.90;;;4.30;99.90;;;;;;5051513;28;20451;-68
2022/12/05 12:34:07;;;;;;;9.47;5.13;;;4.30;99.90;;;;;;5051317;28;20473;-67
2022/12/05 12:36:38;;;;;;;5.27;4.77;;;4.30;99.90;;;;;;5051455;28;20505;-67
2022/12/05 12:39:24;;;;;;;4.73;4.23;;;4.30;99.90;;;;;;5054485;28;20533;-67
2022/12/05 12:42:05;;;;;;;5.07;3.90;;;4.30;99.90;;;;;;5055134;28;20491;-67
2022/12/05 12:44:52;;;;;;;6.30;5.30;;;4.30;99.90;;;;;;5055228;28;20471;-67
2022/12/05 12:47:30;;;;;;;5.20;4.70;;;4.30;99.90;;;;;;5055643;28;20455;-67
2022/12/05 12:50:09;;;;;;;7.17;5.10;;;4.30;99.90;;;;;;5055389;28;20451;-67
2022/12/05 12:52:54;;;;;;;5.10;4.60;;;4.30;99.90;;;;;;5055285;28;20498;-67
2022/12/05 12:55:24;;;;;;;6.60;4.93;;;4.30;99.90;;;;;;5055181;28;20484;-67
2022/12/05 12:58:01;;;;;;;5.53;4.50;;;4.20;99.90;;;;;;5055445;28;20457;-67
2022/12/05 13:00:40;;;;;;;5.60;4.43;;;4.20;99.90;;;;;;5055138;28;20475;-67
2022/12/05 13:03:12;;;;;;;6.80;5.47;;;4.20;99.90;;;;;;5055065;28;20445;-67
2022/12/05 13:05:45;;;;;;;5.80;5.20;;;4.20;99.90;;;;;;5055046;28;20473;-67
2022/12/05 13:08:18;;;;;;;7.40;4.97;;;4.20;99.90;;;;;;5055262;28;20445;-67